createdAt,value
2022-08-23T00:00:12.959Z,2.00
2022-08-23T00:01:04.479Z,2.10
2022-08-23T00:02:05.450Z,1.80
2022-08-23T00:03:04.825Z,1.90
2022-08-23T00:04:04.416Z,1.70
2022-08-23T00:05:09.290Z,1.80
2022-08-23T00:06:04.381Z,1.70
2022-08-23T00:07:04.373Z,2.20
2022-08-23T00:08:04.359Z,1.90
2022-08-23T00:09:04.348Z,1.80
2022-08-23T00:10:04.692Z,1.60
2022-08-23T00:11:04.325Z,1.70
2022-08-23T00:12:04.316Z,1.70
2022-08-23T00:13:04.302Z,1.90
2022-08-23T00:14:04.296Z,1.60
2022-08-23T00:15:04.284Z,1.60
2022-08-23T00:16:04.272Z,2.10
2022-08-23T00:17:04.259Z,1.50
2022-08-23T00:18:04.246Z,2.10
2022-08-23T00:19:04.237Z,1.70
2022-08-23T00:20:04.234Z,1.80
2022-08-23T00:21:04.218Z,1.80
2022-08-23T00:22:04.203Z,1.80
2022-08-23T00:23:04.192Z,1.90
2022-08-23T00:24:04.184Z,1.90
2022-08-23T00:25:04.170Z,1.90
2022-08-23T00:26:04.160Z,1.70
2022-08-23T00:27:04.147Z,2.00
2022-08-23T00:28:04.138Z,1.80
2022-08-23T00:29:04.133Z,1.70
2022-08-23T00:30:04.116Z,1.70
2022-08-23T00:31:04.102Z,1.70
2022-08-23T00:32:04.094Z,2.10
2022-08-23T00:33:04.090Z,1.80
2022-08-23T00:34:04.092Z,1.90
2022-08-23T00:35:04.069Z,1.90
2022-08-23T00:36:04.059Z,2.10
2022-08-23T00:37:04.034Z,1.70
2022-08-23T00:38:33.297Z,1.90
2022-08-23T00:39:04.013Z,1.80
2022-08-23T00:40:04.058Z,1.90
2022-08-23T00:41:04.002Z,1.80
2022-08-23T00:42:03.983Z,1.80
2022-08-23T00:43:05.874Z,1.90
2022-08-23T00:44:03.964Z,1.80
2022-08-23T00:45:03.947Z,1.90
2022-08-23T00:46:03.939Z,1.90
2022-08-23T00:47:03.928Z,2.00
2022-08-23T00:48:03.921Z,1.80
2022-08-23T00:49:03.903Z,1.90
2022-08-23T00:50:03.895Z,2.10
2022-08-23T00:51:03.884Z,1.70
2022-08-23T00:52:03.873Z,2.10
2022-08-23T00:53:03.860Z,2.00
2022-08-23T00:54:03.850Z,1.90
2022-08-23T00:55:03.849Z,2.00
2022-08-23T00:56:03.827Z,2.00
2022-08-23T00:57:04.026Z,1.70
2022-08-23T00:58:03.859Z,2.00
2022-08-23T00:59:03.791Z,1.70
2022-08-23T01:00:03.786Z,1.90
2022-08-23T01:01:03.771Z,1.90
2022-08-23T01:02:03.818Z,2.10
2022-08-23T01:03:03.747Z,1.90
2022-08-23T01:04:04.965Z,2.50
2022-08-23T01:05:03.744Z,1.90
2022-08-23T01:06:03.728Z,1.90
2022-08-23T01:07:03.706Z,2.20
2022-08-23T01:08:03.694Z,2.20
2022-08-23T01:09:03.684Z,2.00
2022-08-23T01:10:03.676Z,1.80
2022-08-23T01:11:03.663Z,2.00
2022-08-23T01:12:03.650Z,2.00
2022-08-23T01:13:03.638Z,1.80
2022-08-23T01:14:03.628Z,2.20
2022-08-23T01:15:03.617Z,1.80
2022-08-23T01:16:03.606Z,1.90
2022-08-23T01:17:03.596Z,2.10
2022-08-23T01:18:03.584Z,1.90
2022-08-23T01:19:03.574Z,2.00
2022-08-23T01:20:03.563Z,2.00
2022-08-23T01:21:03.551Z,2.20
2022-08-23T01:22:03.542Z,1.90
2022-08-23T01:23:03.527Z,1.90
2022-08-23T01:24:03.518Z,2.00
2022-08-23T01:25:07.593Z,2.20
2022-08-23T01:26:03.496Z,1.80
2022-08-23T01:27:03.482Z,1.80
2022-08-23T01:28:03.472Z,2.00
2022-08-23T01:29:03.459Z,2.00
2022-08-23T01:30:03.454Z,2.20
2022-08-23T01:31:03.440Z,2.00
2022-08-23T01:32:03.429Z,1.90
2022-08-23T01:33:03.419Z,1.90
2022-08-23T01:34:03.408Z,2.30
2022-08-23T01:35:03.395Z,1.80
2022-08-23T01:36:04.283Z,2.30
2022-08-23T01:37:03.373Z,1.90
2022-08-23T01:38:03.363Z,2.00
2022-08-23T01:39:03.351Z,2.10
2022-08-23T01:40:03.416Z,2.10
2022-08-23T01:41:03.329Z,1.90
2022-08-23T01:42:07.487Z,1.80
2022-08-23T01:43:03.309Z,2.10
2022-08-23T01:44:03.297Z,2.00
2022-08-23T01:45:03.288Z,2.10
2022-08-23T01:46:03.275Z,1.90
2022-08-23T01:47:03.263Z,2.10
2022-08-23T01:48:03.254Z,1.70
2022-08-23T01:49:06.538Z,2.10
2022-08-23T01:50:03.233Z,1.80
2022-08-23T01:51:03.219Z,1.90
2022-08-23T01:52:03.213Z,2.10
2022-08-23T01:53:03.491Z,2.00
2022-08-23T01:54:03.190Z,1.90
2022-08-23T01:55:03.176Z,1.60
2022-08-23T01:56:03.165Z,1.90
2022-08-23T01:57:03.153Z,1.80
2022-08-23T01:58:03.143Z,2.00
2022-08-23T01:59:03.131Z,2.10
2022-08-23T02:00:03.122Z,1.90
2022-08-23T02:01:03.110Z,2.00
2022-08-23T02:02:03.214Z,1.70
2022-08-23T02:03:03.089Z,1.90
2022-08-23T02:04:04.890Z,1.80
2022-08-23T02:05:03.064Z,2.20
2022-08-23T02:06:03.056Z,2.10
2022-08-23T02:07:03.048Z,2.10
2022-08-23T02:08:03.034Z,2.00
2022-08-23T02:09:03.513Z,2.30
2022-08-23T02:10:03.011Z,2.10
2022-08-23T02:11:03.001Z,2.10
2022-08-23T02:12:02.991Z,2.00
2022-08-23T02:13:02.980Z,2.50
2022-08-23T02:14:02.969Z,2.20
2022-08-23T02:15:02.971Z,1.90
2022-08-23T02:16:02.963Z,2.00
2022-08-23T02:17:04.968Z,1.90
2022-08-23T02:18:02.923Z,1.80
2022-08-23T02:19:02.913Z,1.90
2022-08-23T02:20:02.900Z,2.10
2022-08-23T02:21:02.984Z,2.00
2022-08-23T02:22:02.879Z,2.30
2022-08-23T02:23:02.869Z,2.10
2022-08-23T02:24:02.856Z,2.20
2022-08-23T02:25:02.849Z,2.20
2022-08-23T02:26:02.837Z,2.20
2022-08-23T02:27:02.837Z,2.10
2022-08-23T02:28:02.813Z,1.80
2022-08-23T02:29:02.805Z,2.00
2022-08-23T02:30:02.792Z,1.90
2022-08-23T02:31:02.785Z,1.90
2022-08-23T02:32:02.768Z,1.90
2022-08-23T02:33:02.759Z,2.40
2022-08-23T02:35:05.323Z,1.80
2022-08-23T02:35:55.496Z,2.00
2022-08-23T02:36:55.476Z,2.00
2022-08-23T02:37:55.497Z,1.60
2022-08-23T02:38:55.450Z,2.50
2022-08-23T02:39:55.485Z,2.30
2022-08-23T02:41:00.970Z,2.10
2022-08-23T02:41:55.417Z,1.80
2022-08-23T02:42:55.405Z,2.10
2022-08-23T02:43:55.393Z,2.00
2022-08-23T02:44:55.380Z,2.00
2022-08-23T02:45:55.370Z,2.40
2022-08-23T02:46:55.363Z,2.10
2022-08-23T02:47:55.411Z,2.10
2022-08-23T02:48:55.335Z,2.30
2022-08-23T02:49:55.329Z,2.10
2022-08-23T02:50:55.314Z,2.20
2022-08-23T02:51:55.308Z,2.20
2022-08-23T02:52:55.298Z,1.90
2022-08-23T02:53:55.283Z,1.90
2022-08-23T02:54:58.054Z,2.40
2022-08-23T02:55:55.265Z,2.30
2022-08-23T02:56:55.246Z,2.20
2022-08-23T02:57:55.352Z,2.00
2022-08-23T02:58:55.229Z,2.00
2022-08-23T02:59:55.214Z,2.10
2022-08-23T03:00:55.203Z,1.80
2022-08-23T03:01:55.214Z,1.70
2022-08-23T03:02:55.180Z,2.30
2022-08-23T03:03:55.169Z,2.00
2022-08-23T03:04:55.163Z,2.00
2022-08-23T03:05:55.147Z,1.70
2022-08-23T03:06:55.133Z,2.20
2022-08-23T03:07:55.125Z,2.00
2022-08-23T03:08:55.117Z,2.10
2022-08-23T03:09:55.104Z,1.90
2022-08-23T03:10:55.087Z,2.50
2022-08-23T03:11:55.091Z,2.00
2022-08-23T03:12:55.068Z,2.20
2022-08-23T03:13:55.057Z,2.00
2022-08-23T03:14:55.046Z,2.10
2022-08-23T03:15:55.033Z,1.80
2022-08-23T03:16:57.468Z,2.20
2022-08-23T03:17:55.072Z,2.10
2022-08-23T03:18:55.007Z,2.10
2022-08-23T03:19:54.988Z,2.30
2022-08-23T03:20:54.983Z,2.00
2022-08-23T03:21:54.967Z,1.90
2022-08-23T03:22:55.107Z,2.20
2022-08-23T03:23:54.947Z,2.00
2022-08-23T03:24:54.934Z,2.20
2022-08-23T03:25:54.923Z,2.60
2022-08-23T03:26:54.908Z,1.90
2022-08-23T03:27:54.940Z,2.10
2022-08-23T03:28:54.886Z,2.10
2022-08-23T03:29:54.880Z,2.60
2022-08-23T03:30:54.849Z,2.80
2022-08-23T03:31:54.834Z,2.50
2022-08-23T03:32:54.823Z,2.30
2022-08-23T03:33:54.814Z,2.50
2022-08-23T03:34:54.798Z,2.10
2022-08-23T03:35:54.788Z,2.30
2022-08-23T03:36:54.775Z,1.80
2022-08-23T03:37:55.409Z,2.70
2022-08-23T03:38:54.751Z,2.40
2022-08-23T03:39:54.795Z,2.20
2022-08-23T03:40:54.728Z,2.00
2022-08-23T03:41:54.719Z,2.20
2022-08-23T03:42:54.705Z,2.00
2022-08-23T03:43:54.695Z,2.00
2022-08-23T03:44:56.718Z,2.10
2022-08-23T03:45:54.676Z,2.10
2022-08-23T03:46:54.658Z,2.00
2022-08-23T03:47:54.649Z,2.10
2022-08-23T03:48:54.636Z,2.10
2022-08-23T03:49:54.626Z,2.40
2022-08-23T03:50:54.985Z,1.90
2022-08-23T03:51:54.602Z,2.20
2022-08-23T03:52:54.589Z,2.20
2022-08-23T03:53:54.579Z,2.50
2022-08-23T03:54:54.566Z,2.20
2022-08-23T03:55:54.556Z,2.50
2022-08-23T03:56:54.544Z,1.90
2022-08-23T03:57:54.534Z,2.20
2022-08-23T03:58:54.518Z,2.00
2022-08-23T03:59:54.508Z,2.20
2022-08-23T04:00:54.495Z,2.40
2022-08-23T04:01:54.510Z,1.90
2022-08-23T04:02:54.471Z,2.00
2022-08-23T04:03:54.465Z,2.10
2022-08-23T04:04:54.451Z,2.20
2022-08-23T04:05:54.439Z,2.50
2022-08-23T04:06:54.427Z,2.40
2022-08-23T04:07:54.417Z,2.50
2022-08-23T04:08:54.408Z,2.10
2022-08-23T04:09:55.345Z,2.40
2022-08-23T04:10:54.384Z,2.70
2022-08-23T04:11:54.377Z,2.50
2022-08-23T04:12:54.366Z,2.50
2022-08-23T04:13:54.355Z,2.40
2022-08-23T04:14:54.339Z,2.40
2022-08-23T04:15:54.343Z,2.10
2022-08-23T04:16:55.820Z,2.30
2022-08-23T04:17:54.336Z,2.70
2022-08-23T04:18:54.299Z,2.30
2022-08-23T04:19:54.291Z,2.30
2022-08-23T04:20:54.278Z,2.30
2022-08-23T04:21:54.270Z,2.10
2022-08-23T04:22:54.256Z,2.10
2022-08-23T04:23:54.248Z,2.10
2022-08-23T04:24:54.234Z,2.90
2022-08-23T04:25:54.227Z,2.30
2022-08-23T04:26:54.214Z,2.10
2022-08-23T04:27:54.206Z,2.20
2022-08-23T04:28:54.193Z,2.10
2022-08-23T04:29:54.189Z,2.10
2022-08-23T04:30:54.172Z,2.40
2022-08-23T04:31:54.163Z,2.40
2022-08-23T04:32:54.151Z,2.50
2022-08-23T04:33:54.141Z,2.10
2022-08-23T04:34:54.127Z,2.10
2022-08-23T04:35:54.119Z,2.00
2022-08-23T04:36:55.455Z,2.20
2022-08-23T04:37:54.099Z,2.30
2022-08-23T04:38:54.086Z,2.50
2022-08-23T04:39:54.236Z,2.10
2022-08-23T04:40:54.065Z,2.20
2022-08-23T04:41:54.054Z,2.10
2022-08-23T04:42:54.046Z,2.30
2022-08-23T04:43:54.034Z,2.40
2022-08-23T04:44:54.023Z,2.10
2022-08-23T04:45:54.012Z,2.80
2022-08-23T04:46:54.002Z,2.20
2022-08-23T04:47:53.990Z,2.00
2022-08-23T04:48:53.984Z,2.40
2022-08-23T04:49:53.988Z,2.10
2022-08-23T04:50:53.961Z,2.60
2022-08-23T04:51:54.142Z,2.10
2022-08-23T04:52:53.939Z,2.10
2022-08-23T04:53:53.928Z,2.30
2022-08-23T04:54:53.919Z,2.20
2022-08-23T04:55:53.906Z,2.20
2022-08-23T04:56:53.901Z,2.40
2022-08-23T04:57:53.885Z,2.60
2022-08-23T04:58:53.879Z,3.00
2022-08-23T04:59:53.864Z,2.60
2022-08-23T05:00:53.958Z,2.10
2022-08-23T05:01:53.840Z,2.40
2022-08-23T05:02:53.932Z,2.40
2022-08-23T05:03:53.820Z,2.70
2022-08-23T05:04:53.812Z,2.40
2022-08-23T05:05:53.801Z,2.40
2022-08-23T05:06:53.789Z,2.40
2022-08-23T05:07:53.776Z,2.50
2022-08-23T05:08:53.772Z,2.50
2022-08-23T05:09:53.756Z,2.30
2022-08-23T05:10:53.750Z,2.40
2022-08-23T05:11:53.748Z,2.10
2022-08-23T05:12:53.737Z,2.40
2022-08-23T05:13:53.711Z,2.50
2022-08-23T05:14:53.701Z,3.90
2022-08-23T05:15:53.689Z,3.20
2022-08-23T05:16:53.681Z,2.70
2022-08-23T05:17:53.668Z,2.70
2022-08-23T05:18:53.659Z,2.80
2022-08-23T05:19:53.644Z,2.50
2022-08-23T05:20:53.640Z,2.40
2022-08-23T05:21:56.875Z,2.50
2022-08-23T05:22:53.627Z,2.30
2022-08-23T05:23:54.728Z,2.40
2022-08-23T05:24:53.614Z,2.40
2022-08-23T05:25:53.658Z,2.50
2022-08-23T05:26:53.571Z,2.60
2022-08-23T05:27:53.558Z,2.40
2022-08-23T05:28:53.555Z,2.30
2022-08-23T05:29:53.540Z,2.30
2022-08-23T05:30:56.459Z,2.60
2022-08-23T05:31:53.518Z,2.40
2022-08-23T05:32:53.507Z,2.70
2022-08-23T05:33:53.497Z,2.40
2022-08-23T05:34:53.510Z,2.40
2022-08-23T05:35:53.494Z,2.20
2022-08-23T05:36:55.878Z,2.50
2022-08-23T05:37:53.455Z,2.90
2022-08-23T05:38:53.496Z,2.50
2022-08-23T05:39:53.484Z,2.40
2022-08-23T05:40:54.972Z,2.50
2022-08-23T05:41:53.412Z,2.40
2022-08-23T05:42:53.402Z,2.60
2022-08-23T05:43:53.395Z,2.40
2022-08-23T05:44:53.377Z,2.30
2022-08-23T05:45:53.366Z,2.60
2022-08-23T05:46:53.382Z,2.40
2022-08-23T05:47:55.762Z,2.30
2022-08-23T05:48:53.350Z,2.40
2022-08-23T05:49:53.321Z,3.20
2022-08-23T05:50:53.310Z,2.20
2022-08-23T05:51:53.296Z,2.20
2022-08-23T05:52:53.291Z,2.40
2022-08-23T05:53:53.284Z,2.70
2022-08-23T05:54:53.270Z,2.70
2022-08-23T05:55:53.253Z,2.30
2022-08-23T05:56:53.247Z,2.10
2022-08-23T05:57:53.240Z,2.20
2022-08-23T05:58:57.781Z,2.50
2022-08-23T05:59:53.213Z,2.70
2022-08-23T06:00:53.263Z,2.60
2022-08-23T06:01:53.184Z,2.80
2022-08-23T06:02:53.178Z,2.60
2022-08-23T06:03:53.264Z,2.40
2022-08-23T06:04:57.165Z,2.30
2022-08-23T06:05:53.143Z,2.50
2022-08-23T06:06:53.133Z,2.30
2022-08-23T06:07:53.121Z,2.50
2022-08-23T06:08:53.110Z,2.50
2022-08-23T06:09:53.247Z,2.30
2022-08-23T06:10:53.160Z,2.40
2022-08-23T06:11:53.077Z,2.10
2022-08-23T06:12:53.071Z,2.20
2022-08-23T06:13:53.116Z,2.80
2022-08-23T06:14:53.042Z,2.00
2022-08-23T06:15:53.035Z,2.00
2022-08-23T06:16:56.101Z,2.20
2022-08-23T06:17:53.009Z,2.50
2022-08-23T06:18:53.001Z,2.30
2022-08-23T06:19:52.992Z,2.30
2022-08-23T06:20:53.042Z,2.20
2022-08-23T06:21:52.975Z,2.40
2022-08-23T06:22:52.970Z,2.30
2022-08-23T06:23:52.964Z,2.30
2022-08-23T06:24:52.949Z,2.30
2022-08-23T06:25:52.927Z,2.20
2022-08-23T06:26:52.917Z,2.30
2022-08-23T06:27:52.904Z,2.30
2022-08-23T06:28:53.006Z,2.30
2022-08-23T06:29:52.878Z,2.70
2022-08-23T06:30:52.900Z,2.70
2022-08-23T06:31:52.856Z,2.60
2022-08-23T06:32:52.889Z,2.70
2022-08-23T06:33:53.048Z,2.60
2022-08-23T06:34:52.835Z,2.50
2022-08-23T06:35:53.847Z,2.50
2022-08-23T06:36:52.829Z,2.40
2022-08-23T06:37:52.799Z,2.60
2022-08-23T06:38:52.786Z,2.60
2022-08-23T06:39:52.834Z,2.50
2022-08-23T06:40:52.759Z,2.50
2022-08-23T06:41:52.742Z,2.40
2022-08-23T06:42:52.845Z,2.00
2022-08-23T06:43:52.730Z,2.30
2022-08-23T06:44:52.714Z,2.00
2022-08-23T06:45:58.134Z,2.30
2022-08-23T06:46:52.761Z,2.30
2022-08-23T06:47:52.693Z,2.30
2022-08-23T06:48:52.672Z,2.10
2022-08-23T06:49:58.318Z,2.30
2022-08-23T06:50:52.649Z,2.30
2022-08-23T06:51:52.633Z,2.40
2022-08-23T06:52:52.625Z,2.40
2022-08-23T06:53:52.612Z,2.10
2022-08-23T06:54:52.610Z,2.20
2022-08-23T06:55:52.589Z,2.20
2022-08-23T06:56:52.587Z,2.40
2022-08-23T06:57:52.569Z,3.00
2022-08-23T06:58:53.002Z,2.40
2022-08-23T06:59:52.547Z,2.20
2022-08-23T07:00:57.220Z,2.20
2022-08-23T07:01:52.664Z,2.60
2022-08-23T07:02:52.598Z,2.40
2022-08-23T07:03:52.503Z,2.50
2022-08-23T07:04:52.495Z,2.20
2022-08-23T07:05:52.487Z,2.10
2022-08-23T07:06:52.472Z,2.10
2022-08-23T07:07:52.457Z,2.20
2022-08-23T07:08:52.449Z,2.20
2022-08-23T07:09:52.437Z,2.10
2022-08-23T07:10:52.455Z,2.20
2022-08-23T07:11:52.455Z,2.10
2022-08-23T07:12:52.427Z,2.20
2022-08-23T07:13:52.396Z,2.30
2022-08-23T07:14:52.388Z,2.30
2022-08-23T07:15:52.436Z,2.40
2022-08-23T07:16:52.365Z,2.10
2022-08-23T07:17:52.355Z,2.10
2022-08-23T07:18:52.341Z,2.20
2022-08-23T07:19:52.328Z,2.40
2022-08-23T07:20:52.320Z,2.20
2022-08-23T07:21:52.304Z,2.00
2022-08-23T07:22:52.311Z,2.20
2022-08-23T07:23:52.292Z,2.70
2022-08-23T07:24:52.273Z,2.50
2022-08-23T07:25:52.262Z,2.20
2022-08-23T07:26:52.255Z,2.20
2022-08-23T07:27:52.589Z,2.60
2022-08-23T07:28:52.230Z,2.10
2022-08-23T07:29:52.215Z,2.30
2022-08-23T07:30:52.209Z,2.10
2022-08-23T07:31:52.290Z,2.00
2022-08-23T07:32:52.186Z,2.30
2022-08-23T07:33:52.180Z,2.00
2022-08-23T07:34:52.187Z,2.20
2022-08-23T07:35:52.183Z,1.80
2022-08-23T07:36:52.156Z,2.30
2022-08-23T07:37:52.147Z,2.20
2022-08-23T07:38:52.119Z,3.30
2022-08-23T07:39:52.150Z,2.50
2022-08-23T07:40:53.870Z,2.20
2022-08-23T07:41:52.088Z,2.10
2022-08-23T07:42:52.084Z,1.90
2022-08-23T07:43:52.068Z,2.50
2022-08-23T07:44:52.696Z,2.20
2022-08-23T07:45:52.044Z,2.20
2022-08-23T07:46:52.079Z,2.20
2022-08-23T07:47:52.051Z,2.00
2022-08-23T07:48:54.651Z,2.20
2022-08-23T07:49:52.014Z,2.30
2022-08-23T07:50:56.008Z,2.30
2022-08-23T07:51:53.004Z,2.00
2022-08-23T07:52:51.970Z,2.50
2022-08-23T07:53:51.956Z,2.00
2022-08-23T07:54:51.946Z,2.10
2022-08-23T07:55:51.935Z,2.10
2022-08-23T07:56:51.926Z,2.20
2022-08-23T07:57:51.929Z,2.10
2022-08-23T07:58:51.949Z,2.10
2022-08-23T07:59:51.891Z,2.10
2022-08-23T08:00:51.880Z,2.00
2022-08-23T08:01:51.948Z,2.10
2022-08-23T08:02:52.699Z,1.90
2022-08-23T08:03:51.850Z,2.00
2022-08-23T08:04:51.847Z,2.20
2022-08-23T08:05:51.825Z,2.30
2022-08-23T08:07:05.167Z,1.90
2022-08-23T08:07:52.835Z,2.30
2022-08-23T08:08:51.810Z,2.20
2022-08-23T08:09:51.876Z,1.90
2022-08-23T08:10:51.774Z,2.10
2022-08-23T08:11:51.768Z,2.10
2022-08-23T08:12:51.756Z,2.20
2022-08-23T08:13:51.756Z,1.90
2022-08-23T08:14:51.734Z,1.70
2022-08-23T08:15:51.772Z,2.20
2022-08-23T08:16:51.713Z,2.00
2022-08-23T08:17:51.699Z,2.20
2022-08-23T08:18:51.687Z,2.10
2022-08-23T08:19:51.718Z,1.80
2022-08-23T08:20:51.738Z,1.80
2022-08-23T08:21:51.672Z,2.10
2022-08-23T08:22:58.403Z,2.10
2022-08-23T08:23:51.633Z,2.00
2022-08-23T08:24:51.625Z,2.50
2022-08-23T08:25:51.614Z,1.90
2022-08-23T08:26:51.616Z,2.00
2022-08-23T08:27:51.595Z,2.00
2022-08-23T08:28:51.585Z,2.00
2022-08-23T08:29:51.570Z,2.10
2022-08-23T08:30:51.567Z,2.10
2022-08-23T08:31:54.325Z,2.10
2022-08-23T08:32:51.553Z,2.30
2022-08-23T08:33:51.531Z,1.80
2022-08-23T08:34:51.525Z,2.00
2022-08-23T08:35:58.942Z,1.90
2022-08-23T08:36:51.507Z,2.00
2022-08-23T08:37:51.502Z,1.80
2022-08-23T08:38:54.349Z,2.30
2022-08-23T08:39:51.514Z,2.00
2022-08-23T08:40:51.461Z,2.10
2022-08-23T08:41:55.135Z,1.80
2022-08-23T08:42:51.435Z,2.00
2022-08-23T08:43:51.749Z,1.90
2022-08-23T08:44:51.424Z,2.00
2022-08-23T08:45:58.682Z,2.00
2022-08-23T08:46:51.415Z,2.10
2022-08-23T08:47:51.383Z,2.00
2022-08-23T08:48:51.571Z,1.80
2022-08-23T08:49:51.364Z,2.00
2022-08-23T08:50:51.359Z,3.00
2022-08-23T08:51:52.088Z,2.40
2022-08-23T08:52:51.398Z,2.20
2022-08-23T08:53:51.422Z,2.00
2022-08-23T08:54:53.316Z,1.90
2022-08-23T08:55:51.519Z,2.10
2022-08-23T08:56:51.501Z,2.20
2022-08-23T08:57:51.479Z,2.70
2022-08-23T08:58:51.271Z,1.80
2022-08-23T08:59:51.263Z,2.20
2022-08-23T09:00:55.582Z,1.80
2022-08-23T09:01:51.286Z,2.00
2022-08-23T09:02:51.258Z,1.70
2022-08-23T09:03:52.377Z,1.90
2022-08-23T09:04:51.680Z,1.70
2022-08-23T09:05:51.225Z,2.10
2022-08-23T09:06:51.210Z,2.30
2022-08-23T09:07:51.181Z,1.90
2022-08-23T09:08:51.174Z,1.90
2022-08-23T09:09:51.163Z,2.10
2022-08-23T09:10:51.152Z,1.60
2022-08-23T09:11:51.142Z,2.00
2022-08-23T09:12:51.130Z,2.10
2022-08-23T09:13:51.123Z,1.90
2022-08-23T09:14:51.112Z,1.80
2022-08-23T09:15:51.145Z,2.10
2022-08-23T09:16:51.173Z,1.70
2022-08-23T09:17:51.098Z,1.90
2022-08-23T09:18:51.072Z,1.90
2022-08-23T09:19:51.076Z,2.00
2022-08-23T09:20:51.050Z,2.00
2022-08-23T09:21:51.045Z,2.20
2022-08-23T09:22:51.033Z,2.10
2022-08-23T09:24:00.575Z,2.20
2022-08-23T09:24:51.013Z,1.90
2022-08-23T09:25:50.999Z,2.20
2022-08-23T09:26:51.058Z,1.70
2022-08-23T09:27:51.230Z,1.80
2022-08-23T09:28:50.971Z,1.70
2022-08-23T09:29:50.986Z,2.10
2022-08-23T09:30:50.997Z,2.00
2022-08-23T09:31:51.061Z,2.30
2022-08-23T09:32:50.931Z,2.60
2022-08-23T09:33:50.924Z,1.90
2022-08-23T09:34:50.910Z,2.10
2022-08-23T09:35:50.904Z,1.90
2022-08-23T09:36:52.301Z,2.00
2022-08-23T09:37:50.882Z,1.90
2022-08-23T09:38:50.878Z,1.80
2022-08-23T09:39:51.143Z,1.90
2022-08-23T09:40:51.163Z,1.90
2022-08-23T09:41:50.842Z,1.80
2022-08-23T09:42:50.830Z,2.00
2022-08-23T09:43:50.829Z,2.30
2022-08-23T09:44:50.809Z,1.80
2022-08-23T09:45:50.800Z,2.30
2022-08-23T09:46:50.786Z,1.90
2022-08-23T09:47:50.778Z,2.00
2022-08-23T09:48:50.768Z,1.80
2022-08-23T09:49:50.759Z,1.80
2022-08-23T09:50:50.877Z,1.80
2022-08-23T09:51:50.968Z,1.90
2022-08-23T09:52:50.733Z,2.10
2022-08-23T09:53:50.720Z,1.90
2022-08-23T09:54:50.762Z,1.90
2022-08-23T09:55:50.698Z,2.40
2022-08-23T09:56:50.689Z,2.00
2022-08-23T09:57:50.678Z,1.90
2022-08-23T09:58:50.667Z,2.20
2022-08-23T09:59:50.660Z,1.70
2022-08-23T10:00:50.646Z,1.90
2022-08-23T10:01:50.817Z,2.10
2022-08-23T10:02:50.898Z,2.20
2022-08-23T10:03:50.622Z,2.10
2022-08-23T10:04:50.662Z,2.00
2022-08-23T10:05:50.603Z,1.80
2022-08-23T10:06:50.592Z,2.00
2022-08-23T10:07:50.591Z,1.90
2022-08-23T10:08:50.573Z,1.90
2022-08-23T10:09:50.571Z,2.10
2022-08-23T10:10:51.033Z,2.20
2022-08-23T10:11:50.549Z,2.20
2022-08-23T10:12:50.535Z,2.20
2022-08-23T10:13:50.530Z,2.00
2022-08-23T10:14:50.517Z,2.30
2022-08-23T10:15:50.549Z,2.10
2022-08-23T10:16:50.530Z,1.90
2022-08-23T10:17:50.528Z,1.90
2022-08-23T10:18:50.608Z,2.00
2022-08-23T10:19:50.505Z,1.90
2022-08-23T10:20:50.529Z,2.10
2022-08-23T10:21:50.558Z,1.90
2022-08-23T10:22:50.567Z,1.90
2022-08-23T10:23:50.537Z,1.60
2022-08-23T10:24:50.450Z,2.00
2022-08-23T10:25:50.412Z,2.20
2022-08-23T10:26:50.400Z,1.80
2022-08-23T10:27:50.388Z,1.80
2022-08-23T10:28:50.381Z,2.10
2022-08-23T10:29:50.454Z,2.20
2022-08-23T10:30:50.420Z,1.60
2022-08-23T10:31:50.351Z,1.90
2022-08-23T10:32:50.338Z,2.10
2022-08-23T10:33:50.328Z,1.90
2022-08-23T10:34:50.845Z,1.90
2022-08-23T10:35:50.991Z,1.90
2022-08-23T10:36:51.054Z,2.10
2022-08-23T10:37:50.285Z,1.70
2022-08-23T10:38:50.274Z,1.80
2022-08-23T10:39:50.303Z,1.70
2022-08-23T10:40:50.253Z,2.00
2022-08-23T10:41:50.246Z,2.20
2022-08-23T10:42:50.239Z,2.00
2022-08-23T10:43:50.226Z,2.00
2022-08-23T10:44:50.213Z,1.90
2022-08-23T10:45:50.409Z,1.80
2022-08-23T10:46:50.382Z,1.80
2022-08-23T10:47:50.213Z,1.90
2022-08-23T10:48:50.175Z,1.90
2022-08-23T10:49:50.168Z,2.10
2022-08-23T10:50:55.432Z,1.90
2022-08-23T10:51:51.839Z,1.70
2022-08-23T10:52:50.136Z,1.60
2022-08-23T10:53:50.133Z,1.80
2022-08-23T10:54:50.124Z,1.70
2022-08-23T10:55:50.111Z,1.70
2022-08-23T10:56:51.320Z,1.90
2022-08-23T10:57:50.332Z,1.80
2022-08-23T10:58:50.077Z,1.90
2022-08-23T10:59:50.115Z,2.10
2022-08-23T11:00:50.062Z,1.80
2022-08-23T11:01:50.101Z,1.80
2022-08-23T11:02:50.135Z,1.80
2022-08-23T11:03:50.034Z,1.50
2022-08-23T11:04:50.022Z,1.60
2022-08-23T11:05:50.019Z,1.50
2022-08-23T11:06:50.007Z,1.70
2022-08-23T11:07:49.993Z,1.90
2022-08-23T11:08:50.795Z,1.50
2022-08-23T11:09:50.309Z,1.60
2022-08-23T11:10:56.363Z,1.80
2022-08-23T11:11:49.955Z,1.50
2022-08-23T11:12:49.953Z,1.50
2022-08-23T11:13:49.936Z,1.70
2022-08-23T11:14:49.924Z,1.80
2022-08-23T11:15:49.952Z,1.80
2022-08-23T11:16:49.904Z,1.80
2022-08-23T11:17:49.900Z,1.90
2022-08-23T11:18:49.888Z,1.80
2022-08-23T11:19:49.877Z,1.60
2022-08-23T11:20:49.963Z,1.90
2022-08-23T11:21:49.860Z,1.90
2022-08-23T11:22:49.851Z,1.90
2022-08-23T11:23:49.954Z,1.80
2022-08-23T11:24:49.833Z,2.20
2022-08-23T11:25:49.822Z,2.10
2022-08-23T11:26:49.809Z,1.80
2022-08-23T11:27:49.801Z,1.60
2022-08-23T11:28:49.795Z,1.60
2022-08-23T11:29:49.785Z,1.70
2022-08-23T11:30:50.116Z,1.50
2022-08-23T11:31:49.761Z,1.90
2022-08-23T11:32:49.753Z,1.70
2022-08-23T11:33:49.758Z,1.70
2022-08-23T11:34:49.757Z,1.60
2022-08-23T11:35:49.747Z,1.60
2022-08-23T11:36:49.845Z,1.80
2022-08-23T11:37:49.705Z,1.60
2022-08-23T11:38:49.694Z,1.60
2022-08-23T11:39:49.753Z,1.50
2022-08-23T11:40:49.681Z,1.60
2022-08-23T11:41:49.671Z,1.60
2022-08-23T11:42:49.661Z,1.80
2022-08-23T11:43:49.647Z,1.80
2022-08-23T11:44:49.636Z,1.60
2022-08-23T11:45:49.708Z,1.70
2022-08-23T11:46:49.617Z,1.80
2022-08-23T11:47:49.608Z,1.70
2022-08-23T11:48:49.604Z,1.50
2022-08-23T11:49:49.592Z,1.50
2022-08-23T11:50:54.280Z,1.60
2022-08-23T11:51:50.599Z,1.60
2022-08-23T11:52:49.561Z,1.60
2022-08-23T11:53:49.554Z,1.60
2022-08-23T11:54:49.541Z,1.60
2022-08-23T11:55:49.534Z,1.50
2022-08-23T11:56:49.523Z,1.80
2022-08-23T11:57:49.513Z,1.70
2022-08-23T11:58:49.502Z,1.80
2022-08-23T11:59:49.495Z,1.60
2022-08-23T12:00:49.505Z,1.70
2022-08-23T12:01:49.477Z,1.60
2022-08-23T12:02:49.813Z,1.50
2022-08-23T12:03:49.690Z,1.80
2022-08-23T12:04:49.447Z,1.50
2022-08-23T12:05:50.519Z,2.50
2022-08-23T12:06:51.033Z,1.70
2022-08-23T12:07:49.420Z,1.60
2022-08-23T12:08:49.425Z,1.40
2022-08-23T12:09:49.434Z,2.00
2022-08-23T12:10:49.437Z,1.30
2022-08-23T12:11:49.413Z,1.50
2022-08-23T12:12:49.391Z,1.40
2022-08-23T12:13:49.359Z,1.40
2022-08-23T12:14:49.346Z,1.60
2022-08-23T12:15:49.390Z,1.80
2022-08-23T12:16:49.969Z,1.80
2022-08-23T12:17:49.447Z,1.60
2022-08-23T12:18:49.309Z,1.60
2022-08-23T12:19:49.301Z,1.70
2022-08-23T12:20:49.288Z,1.50
2022-08-23T12:21:49.283Z,1.40
2022-08-23T12:22:49.270Z,1.40
2022-08-23T12:23:49.262Z,1.40
2022-08-23T12:24:52.468Z,1.40
2022-08-23T12:25:49.244Z,1.40
2022-08-23T12:26:49.232Z,1.50
2022-08-23T12:27:49.223Z,1.60
2022-08-23T12:28:49.215Z,1.50
2022-08-23T12:29:49.205Z,1.50
2022-08-23T12:30:49.281Z,1.40
2022-08-23T12:31:49.283Z,1.40
2022-08-23T12:32:49.175Z,1.40
2022-08-23T12:33:49.178Z,1.20
2022-08-23T12:34:49.224Z,1.70
2022-08-23T12:35:49.196Z,1.30
2022-08-23T12:36:50.148Z,1.30
2022-08-23T12:37:49.129Z,1.40
2022-08-23T12:38:49.118Z,1.40
2022-08-23T12:39:49.171Z,1.40
2022-08-23T12:40:49.096Z,1.50
2022-08-23T12:41:49.090Z,1.50
2022-08-23T12:42:49.078Z,1.50
2022-08-23T12:43:49.073Z,1.50
2022-08-23T12:44:49.060Z,1.50
2022-08-23T12:45:49.096Z,1.30
2022-08-23T12:46:49.143Z,1.40
2022-08-23T12:47:49.031Z,1.20
2022-08-23T12:48:49.021Z,1.40
2022-08-23T12:49:49.012Z,1.40
2022-08-23T12:50:49.000Z,1.50
2022-08-23T12:51:48.989Z,2.00
2022-08-23T12:52:49.087Z,1.50
2022-08-23T12:53:48.975Z,1.40
2022-08-23T12:54:48.963Z,1.60
2022-08-23T12:55:48.978Z,1.40
2022-08-23T12:56:48.972Z,1.30
2022-08-23T12:57:48.940Z,1.50
2022-08-23T12:58:48.954Z,1.40
2022-08-23T12:59:48.916Z,1.30
2022-08-23T13:00:48.904Z,1.30
2022-08-23T13:01:48.928Z,1.40
2022-08-23T13:02:48.926Z,1.40
2022-08-23T13:03:48.885Z,1.40
2022-08-23T13:04:48.865Z,1.30
2022-08-23T13:05:48.856Z,1.40
2022-08-23T13:06:49.529Z,1.50
2022-08-23T13:07:48.837Z,1.20
2022-08-23T13:08:48.833Z,1.30
2022-08-23T13:09:53.845Z,1.60
2022-08-23T13:10:48.809Z,1.50
2022-08-23T13:11:48.801Z,1.40
2022-08-23T13:12:48.790Z,1.70
2022-08-23T13:13:48.881Z,1.50
2022-08-23T13:14:48.781Z,1.30
2022-08-23T13:15:48.939Z,1.20
2022-08-23T13:16:49.027Z,1.50
2022-08-23T13:17:48.742Z,1.40
2022-08-23T13:18:48.734Z,1.30